Terminal Aerodrome Forecast
Issued by NWS North Platte, NE

Home | Current Version | Previous Version | Graphics & Text | Print | Product List | Glossary On
Versions: 1 2 3 4 5 6 7 8 9 10 11 12 13
000
FTUS43 KLBF 241120
TAFVTN
TAF
KVTN 241120Z 2412/2512 28005KT P6SM SKC
     FM241400 29012KT P6SM SKC
     FM241600 31013G20KT P6SM FEW250
     FM250000 34012KT P6SM SCT200
     FM250300 VRB05KT P6SM SCT200=

USA.gov is the U.S. government's official web portal to all federal, state and local government web resources and services.